Time;durP1;ratioP1;P1;durP2;ratioP2;P2;SDS_P1;SDS_P2;PMS_P1;PMS_P2;Temp;Humidity;BMP_temperature;BMP_pressure;BME280_temperature;BME280_humidity;BME280_pressure;Samples;Min_cycle;Max_cycle;Signal;HPM_P1;HPM_P2
2024/03/30 00:01:50;;;;;;;;;;;;;;;15.20;93.43;100607.00;4946566;28;19928;-81
2024/03/30 00:04:15;;;;;;;;;;;;;;;15.17;92.96;100604.31;4954453;28;19929;-79
2024/03/30 00:06:40;;;;;;;;;;;;;;;15.20;92.56;100608.69;4943063;28;19924;-79
2024/03/30 00:09:06;;;;;;;;;;;;;;;15.25;91.48;100601.84;4953993;28;20389;-80
2024/03/30 00:11:32;;;;;;;;;;;;;;;15.18;91.41;100603.47;4953443;28;20017;-78
2024/03/30 00:13:58;;;;;;;;;;;;;;;15.21;91.29;100600.06;4953188;28;20339;-78
2024/03/30 00:16:23;;;;;;;;;;;;;;;15.13;91.50;100599.03;4953836;28;20469;-80
2024/03/30 00:18:51;;;;;;;;;;;;;;;15.01;92.08;100600.50;4954462;29;19928;-80
2024/03/30 00:21:16;;;;;;;;;;;;;;;14.99;93.30;100607.44;4956048;28;19922;-80
2024/03/30 00:23:42;;;;;;;;;;;;;;;14.97;93.06;100606.50;4967075;28;20012;-81
2024/03/30 00:26:08;;;;;;;;;;;;;;;14.72;93.34;100608.56;4968362;28;20503;-80
2024/03/30 00:28:33;;;;;;;;;;;;;;;14.77;93.58;100605.22;4968927;28;19929;-79
2024/03/30 00:30:59;;;;;;;;;;;;;;;14.85;93.87;100608.84;4969106;28;20017;-79
2024/03/30 00:33:24;;;;;;;;;;;;;;;14.83;92.96;100605.34;4966544;28;19922;-79
2024/03/30 00:35:54;;;;;;;;;;;;;;;14.79;93.32;100611.31;5009070;28;19960;-79
2024/03/30 00:38:19;;;;;;;;;;;;;;;14.57;93.66;100624.66;5009191;28;19928;-79
2024/03/30 00:40:44;;;;;;;;;;;;;;;14.35;94.25;100623.28;5013626;28;20011;-79
2024/03/30 00:43:10;;;;;;;;;;;;;;;14.43;94.74;100626.06;5013764;28;20335;-79
2024/03/30 00:45:38;;;;;;;;;;;;;;;14.27;95.45;100619.63;5013662;28;20471;-79
2024/03/30 00:48:04;;;;;;;;;;;;;;;14.21;96.27;100620.34;4994839;28;19957;-78
2024/03/30 00:50:29;;;;;;;;;;;;;;;14.06;96.28;100627.75;5013578;28;19995;-78
2024/03/30 00:52:54;;;;;;;;;;;;;;;14.09;97.14;100625.22;4991109;28;19922;-79
2024/03/30 00:55:20;;;;;;;;;;;;;;;14.10;96.45;100618.34;4990930;28;20601;-79
2024/03/30 00:57:45;;;;;;;;;;;;;;;13.97;96.40;100607.66;4991789;28;20013;-79
2024/03/30 01:00:11;;;;;;;;;;;;;;;13.97;96.91;100612.84;4990763;28;19921;-79
2024/03/30 01:02:40;;;;;;;;;;;;;;;14.05;96.10;100613.88;4991195;28;20013;-79
2024/03/30 01:05:06;;;;;;;;;;;;;;;14.08;96.40;100608.78;4990585;28;19921;-78
2024/03/30 01:07:31;;;;;;;;;;;;;;;14.17;96.78;100602.09;4990950;28;19928;-77
2024/03/30 01:09:56;;;;;;;;;;;;;;;14.17;95.37;100600.34;4990559;28;19960;-77
2024/03/30 01:12:22;;;;;;;;;;;;;;;14.07;96.82;100601.84;4990712;28;19928;-78
2024/03/30 01:14:47;;;;;;;;;;;;;;;14.10;97.37;100606.22;4991181;28;19925;-79
2024/03/30 01:17:13;;;;;;;;;;;;;;;14.17;96.69;100607.28;4990497;28;19930;-80
2024/03/30 01:19:40;;;;;;;;;;;;;;;14.21;96.92;100609.97;4991370;28;19922;-80
2024/03/30 01:22:05;;;;;;;;;;;;;;;14.24;96.22;100606.56;4980667;28;19981;-82
2024/03/30 01:24:31;;;;;;;;;;;;;;;14.23;95.03;100612.59;5009390;28;20056;-83
2024/03/30 01:26:57;;;;;;;;;;;;;;;14.22;94.54;100616.03;5010671;28;19921;-81
2024/03/30 01:29:25;;;;;;;;;;;;;;;13.99;94.28;100624.13;5011242;28;19922;-80
2024/03/30 01:31:52;;;;;;;;;;;;;;;13.77;95.26;100622.72;5009945;28;19921;-79
2024/03/30 01:34:17;;;;;;;;;;;;;;;13.58;96.70;100622.22;5011384;28;19925;-80
2024/03/30 01:36:42;;;;;;;;;;;;;;;13.54;98.02;100624.69;5012113;28;19926;-81
2024/03/30 01:39:08;;;;;;;;;;;;;;;13.51;97.79;100615.09;5012011;28;19926;-78
2024/03/30 01:41:36;;;;;;;;;;;;;;;13.44;97.92;100615.75;5012624;28;19929;-78
2024/03/30 01:44:02;;;;;;;;;;;;;;;13.38;97.51;100624.28;5011764;28;20330;-80
2024/03/30 01:46:32;;;;;;;;;;;;;;;13.23;97.25;100616.91;5011915;28;19929;-80
2024/03/30 01:48:57;;;;;;;;;;;;;;;12.88;99.91;100615.88;5012868;28;19921;-80
2024/03/30 01:51:24;;;;;;;;;;;;;;;12.72;100.00;100623.19;5012823;28;19952;-80
2024/03/30 01:53:50;;;;;;;;;;;;;;;12.32;100.00;100619.31;5012573;28;19928;-81
2024/03/30 01:56:15;;;;;;;;;;;;;;;12.08;100.00;100625.44;5013107;28;19922;-78
2024/03/30 01:58:41;;;;;;;;;;;;;;;12.09;100.00;100624.63;5012322;28;19921;-80
2024/03/30 02:01:06;;;;;;;;;;;;;;;12.23;100.00;100619.03;5012471;28;19928;-82
2024/03/30 02:03:32;;;;;;;;;;;;;;;12.19;100.00;100627.53;5013482;28;20571;-80
2024/03/30 02:05:58;;;;;;;;;;;;;;;12.20;100.00;100630.16;5012308;28;19922;-79
2024/03/30 02:08:25;;;;;;;;;;;;;;;12.35;100.00;100624.63;5012069;28;19921;-80
2024/03/30 02:10:50;;;;;;;;;;;;;;;12.52;100.00;100619.09;5012153;28;20407;-80
2024/03/30 02:13:16;;;;;;;;;;;;;;;12.43;100.00;100632.63;5012341;28;19931;-77
2024/03/30 02:15:41;;;;;;;;;;;;;;;12.48;100.00;100623.28;5012529;28;19949;-79
2024/03/30 02:18:07;;;;;;;;;;;;;;;12.38;100.00;100619.53;5010673;28;19928;-80
2024/03/30 02:20:32;;;;;;;;;;;;;;;12.26;100.00;100625.19;5011659;28;19981;-80
2024/03/30 02:22:58;;;;;;;;;;;;;;;12.24;100.00;100623.38;5011624;28;19922;-80
2024/03/30 02:25:23;;;;;;;;;;;;;;;12.10;100.00;100621.22;5012150;28;19917;-78
2024/03/30 02:27:50;;;;;;;;;;;;;;;12.13;100.00;100630.78;5011616;28;20298;-79
2024/03/30 02:30:22;;;;;;;;;;;;;;;12.23;100.00;100627.66;5011783;28;20388;-80
2024/03/30 02:32:47;;;;;;;;;;;;;;;12.29;100.00;100622.69;5007213;28;19927;-80
2024/03/30 02:35:12;;;;;;;;;;;;;;;12.37;100.00;100628.09;5011979;28;20000;-80
2024/03/30 02:37:38;;;;;;;;;;;;;;;12.46;100.00;100620.66;5011703;28;19929;-80
2024/03/30 02:40:07;;;;;;;;;;;;;;;12.39;100.00;100625.59;5010265;28;19922;-81
2024/03/30 02:42:33;;;;;;;;;;;;;;;12.43;100.00;100622.25;5010459;28;19925;-80
2024/03/30 02:44:58;;;;;;;;;;;;;;;12.45;100.00;100626.66;5012479;28;19929;-81
2024/03/30 02:47:24;;;;;;;;;;;;;;;12.53;98.51;100626.88;5011512;28;19925;-80
2024/03/30 02:49:49;;;;;;;;;;;;;;;12.37;99.60;100625.53;5011786;28;19986;-80
2024/03/30 02:52:14;;;;;;;;;;;;;;;12.23;99.98;100621.63;5011745;28;20350;-81
2024/03/30 02:54:40;;;;;;;;;;;;;;;12.20;100.00;100625.00;5010459;28;20447;-80
2024/03/30 02:57:05;;;;;;;;;;;;;;;12.14;100.00;100627.38;5011844;28;20016;-80
2024/03/30 02:59:30;;;;;;;;;;;;;;;12.11;100.00;100619.50;5007187;28;19972;-81
2024/03/30 03:01:56;;;;;;;;;;;;;;;12.05;100.00;100624.47;5011349;28;19922;-81
2024/03/30 03:04:21;;;;;;;;;;;;;;;11.99;100.00;100614.81;5011394;28;20295;-80
2024/03/30 03:06:46;;;;;;;;;;;;;;;11.98;100.00;100620.81;5011902;28;19921;-81
2024/03/30 03:09:12;;;;;;;;;;;;;;;11.89;100.00;100620.47;5011356;28;19917;-81
2024/03/30 03:11:37;;;;;;;;;;;;;;;11.87;100.00;100625.56;5012376;28;20410;-80
2024/03/30 03:14:03;;;;;;;;;;;;;;;11.92;100.00;100625.75;5011051;28;20375;-80
2024/03/30 03:16:28;;;;;;;;;;;;;;;11.99;100.00;100635.50;5011497;28;19989;-80
2024/03/30 03:18:53;;;;;;;;;;;;;;;11.98;99.73;100632.03;5011228;28;20442;-80
2024/03/30 03:21:19;;;;;;;;;;;;;;;11.90;97.63;100635.16;4992086;28;19956;-80
2024/03/30 03:23:45;;;;;;;;;;;;;;;11.89;96.68;100638.59;5010930;28;19917;-80
2024/03/30 03:26:10;;;;;;;;;;;;;;;11.99;96.27;100640.69;5011854;28;19971;-80
2024/03/30 03:28:35;;;;;;;;;;;;;;;12.03;97.58;100634.78;5010980;28;19925;-80
2024/03/30 03:31:01;;;;;;;;;;;;;;;11.96;99.60;100636.28;5011050;28;20035;-80
2024/03/30 03:33:26;;;;;;;;;;;;;;;11.99;99.48;100643.28;5010623;28;20299;-80
2024/03/30 03:36:11;;;;;;;;;;;;;;;11.94;99.48;100647.38;5010395;28;20012;-80
2024/03/30 03:38:37;;;;;;;;;;;;;;;11.86;100.00;100649.69;4994903;28;20019;-80
2024/03/30 03:41:02;;;;;;;;;;;;;;;11.79;100.00;100642.56;4998559;28;20491;-80
2024/03/30 03:43:27;;;;;;;;;;;;;;;11.68;100.00;100655.09;4999892;28;20016;-80
2024/03/30 03:45:57;;;;;;;;;;;;;;;11.63;100.00;100659.25;4997849;28;19917;-80
2024/03/30 03:48:22;;;;;;;;;;;;;;;11.52;100.00;100657.97;4998815;28;20376;-79
2024/03/30 03:50:48;;;;;;;;;;;;;;;11.37;100.00;100659.16;4999677;28;20004;-80
2024/03/30 03:53:13;;;;;;;;;;;;;;;11.33;100.00;100662.47;4995025;28;20454;-79
2024/03/30 03:55:39;;;;;;;;;;;;;;;11.28;100.00;100666.59;4991277;28;19926;-80
2024/03/30 03:58:04;;;;;;;;;;;;;;;11.01;100.00;100667.31;4980200;28;19982;-80
2024/03/30 04:00:30;;;;;;;;;;;;;;;10.96;100.00;100669.69;4990197;28;20368;-80
2024/03/30 04:02:55;;;;;;;;;;;;;;;10.86;100.00;100674.47;5001538;28;20401;-79
2024/03/30 04:05:21;;;;;;;;;;;;;;;10.69;100.00;100672.09;4996196;28;19922;-79
2024/03/30 04:07:46;;;;;;;;;;;;;;;10.56;100.00;100682.75;4997220;28;19922;-80
2024/03/30 04:10:14;;;;;;;;;;;;;;;10.48;100.00;100685.91;5004506;28;19926;-80
2024/03/30 04:12:40;;;;;;;;;;;;;;;10.37;100.00;100682.00;5010441;28;20000;-79
2024/03/30 04:15:05;;;;;;;;;;;;;;;10.29;100.00;100685.94;5010546;28;20056;-78
2024/03/30 04:17:34;;;;;;;;;;;;;;;10.30;100.00;100691.16;5011023;28;20390;-79
2024/03/30 04:19:59;;;;;;;;;;;;;;;10.21;100.00;100695.94;5009742;28;19979;-78
2024/03/30 04:22:25;;;;;;;;;;;;;;;10.22;100.00;100694.22;5010173;28;19922;-78
2024/03/30 04:24:50;;;;;;;;;;;;;;;10.07;100.00;100690.19;5010086;28;20075;-79
2024/03/30 04:27:16;;;;;;;;;;;;;;;9.99;100.00;100692.47;5010060;28;19976;-78
2024/03/30 04:29:41;;;;;;;;;;;;;;;10.02;100.00;100695.16;5010070;28;19943;-79
2024/03/30 04:32:26;;;;;;;;;;;;;;;9.85;100.00;100701.28;5009893;28;20431;-80
2024/03/30 04:34:52;;;;;;;;;;;;;;;9.69;100.00;100705.78;4982014;28;19926;-79
2024/03/30 04:37:17;;;;;;;;;;;;;;;9.70;100.00;100704.06;4988578;28;19921;-79
2024/03/30 04:39:43;;;;;;;;;;;;;;;9.70;100.00;100711.81;4979662;28;19995;-80
2024/03/30 04:42:09;;;;;;;;;;;;;;;9.69;100.00;100703.22;4988430;28;19918;-80
2024/03/30 04:44:35;;;;;;;;;;;;;;;9.75;100.00;100709.44;4988801;28;19964;-80
2024/03/30 04:47:00;;;;;;;;;;;;;;;9.74;100.00;100705.09;4988354;28;19922;-79
2024/03/30 04:49:26;;;;;;;;;;;;;;;9.81;100.00;100709.72;4991883;28;19928;-80
2024/03/30 04:51:51;;;;;;;;;;;;;;;9.85;100.00;100707.31;4991799;28;19972;-80
2024/03/30 04:54:17;;;;;;;;;;;;;;;9.91;100.00;100713.56;4991630;28;19922;-79
2024/03/30 04:56:42;;;;;;;;;;;;;;;9.90;100.00;100709.22;4991546;28;19933;-80
2024/03/30 04:59:07;;;;;;;;;;;;;;;9.91;100.00;100713.56;4992653;28;19922;-80
2024/03/30 05:01:33;;;;;;;;;;;;;;;9.75;100.00;100670.75;4992290;28;19929;-79
2024/03/30 05:03:58;;;;;;;;;;;;;;;10.10;100.00;100717.81;4991690;28;19929;-80
2024/03/30 05:06:25;;;;;;;;;;;;;;;10.10;100.00;100716.09;5007577;28;19921;-80
2024/03/30 05:08:51;;;;;;;;;;;;;;;10.15;100.00;100714.59;5014211;28;19967;-79
2024/03/30 05:11:16;;;;;;;;;;;;;;;10.22;100.00;100715.75;5014273;28;19956;-79
2024/03/30 05:13:42;;;;;;;;;;;;;;;10.36;100.00;100718.97;5013232;28;19971;-79
2024/03/30 05:16:07;;;;;;;;;;;;;;;10.62;100.00;100719.16;5013316;28;19928;-79
2024/03/30 05:18:32;;;;;;;;;;;;;;;10.86;100.00;100718.38;5013519;28;19925;-80
2024/03/30 05:21:01;;;;;;;;;;;;;;;11.02;100.00;100718.16;5013417;28;19928;-80
2024/03/30 05:23:28;;;;;;;;;;;;;;;11.11;100.00;100702.13;5011775;28;19925;-80
2024/03/30 05:25:55;;;;;;;;;;;;;;;11.42;100.00;100717.09;5013372;28;19932;-80
2024/03/30 05:28:22;;;;;;;;;;;;;;;11.51;100.00;100708.78;5013040;28;20012;-79
2024/03/30 05:30:48;;;;;;;;;;;;;;;11.55;100.00;100715.84;5013054;28;19928;-80
2024/03/30 05:33:13;;;;;;;;;;;;;;;11.68;100.00;100716.31;5013543;28;19921;-79
2024/03/30 05:35:39;;;;;;;;;;;;;;;11.82;100.00;100715.09;5012859;28;19960;-80
2024/03/30 05:38:24;;;;;;;;;;;;;;;12.05;100.00;100713.34;5018877;28;19921;-79
2024/03/30 05:40:50;;;;;;;;;;;;;;;12.25;100.00;100715.72;5024165;28;20028;-79
2024/03/30 05:43:15;;;;;;;;;;;;;;;12.38;100.00;100707.53;5011441;28;19922;-80
2024/03/30 05:45:41;;;;;;;;;;;;;;;12.39;100.00;100709.31;5021687;28;19921;-78
2024/03/30 05:48:07;;;;;;;;;;;;;;;12.50;100.00;100703.59;5015645;28;19952;-79
2024/03/30 05:50:33;;;;;;;;;;;;;;;12.60;100.00;100708.28;5023024;28;19944;-78
2024/03/30 05:52:58;;;;;;;;;;;;;;;12.71;100.00;100704.31;5019588;28;19925;-78
2024/03/30 05:55:24;;;;;;;;;;;;;;;12.82;100.00;100708.94;5014653;28;20287;-79
2024/03/30 05:57:51;;;;;;;;;;;;;;;13.00;100.00;100701.75;5009730;28;19933;-78
2024/03/30 06:00:16;;;;;;;;;;;;;;;13.11;100.00;100707.28;5016887;28;20373;-78
2024/03/30 06:02:42;;;;;;;;;;;;;;;13.20;100.00;100706.66;5009312;28;19922;-78
2024/03/30 06:05:08;;;;;;;;;;;;;;;13.34;100.00;100691.50;4993869;28;20313;-78
2024/03/30 06:07:34;;;;;;;;;;;;;;;13.45;100.00;100697.06;4989458;28;19922;-80
2024/03/30 06:10:00;;;;;;;;;;;;;;;13.58;100.00;100696.53;4989649;28;20447;-79
2024/03/30 06:12:25;;;;;;;;;;;;;;;13.68;100.00;100700.28;4990037;28;19976;-80
2024/03/30 06:14:51;;;;;;;;;;;;;;;13.71;100.00;100690.88;4977970;28;20347;-80
2024/03/30 06:17:16;;;;;;;;;;;;;;;13.77;100.00;100697.97;4990206;28;19968;-80
2024/03/30 06:19:42;;;;;;;;;;;;;;;13.73;100.00;100689.22;4992123;28;19929;-79
2024/03/30 06:22:07;;;;;;;;;;;;;;;13.73;100.00;100694.41;4992554;28;19917;-80
2024/03/30 06:24:34;;;;;;;;;;;;;;;13.82;100.00;100701.56;4992508;28;19922;-80
2024/03/30 06:26:59;;;;;;;;;;;;;;;13.94;100.00;100692.34;4992064;28;19918;-79
2024/03/30 06:29:26;;;;;;;;;;;;;;;14.06;100.00;100695.25;4992018;28;19929;-79
2024/03/30 06:31:52;;;;;;;;;;;;;;;14.00;100.00;100692.50;4992578;28;20012;-80
2024/03/30 06:34:17;;;;;;;;;;;;;;;13.87;100.00;100693.91;4991951;28;20032;-79
2024/03/30 06:36:42;;;;;;;;;;;;;;;13.89;100.00;100706.09;4991602;28;20016;-79
2024/03/30 06:39:08;;;;;;;;;;;;;;;13.89;100.00;100706.09;4991198;28;19992;-79
2024/03/30 06:44:17;;;;;;;;;;;;;;;13.77;100.00;100713.53;4989979;28;19929;-79
2024/03/30 06:46:42;;;;;;;;;;;;;;;14.00;100.00;100718.47;4990977;28;19921;-79
2024/03/30 06:49:08;;;;;;;;;;;;;;;14.15;100.00;100710.19;4991501;28;19940;-79
2024/03/30 06:51:33;;;;;;;;;;;;;;;14.03;100.00;100716.84;4992076;28;19921;-79
2024/03/30 06:53:59;;;;;;;;;;;;;;;13.92;100.00;100710.47;4991226;28;20291;-79
2024/03/30 06:56:24;;;;;;;;;;;;;;;14.11;100.00;100713.56;4990072;28;19945;-79
2024/03/30 06:58:49;;;;;;;;;;;;;;;14.38;100.00;100714.28;4991213;28;19921;-80
2024/03/30 07:01:15;;;;;;;;;;;;;;;14.56;100.00;100715.56;4991496;28;19974;-80
2024/03/30 07:03:40;;;;;;;;;;;;;;;14.54;100.00;100714.63;4992451;28;19936;-79
2024/03/30 07:06:06;;;;;;;;;;;;;;;14.45;100.00;100714.41;5009589;28;20374;-80
2024/03/30 07:08:31;;;;;;;;;;;;;;;14.67;100.00;100711.53;5010777;28;19933;-79
2024/03/30 07:10:57;;;;;;;;;;;;;;;14.75;100.00;100700.44;5009648;28;20367;-80
2024/03/30 07:13:22;;;;;;;;;;;;;;;14.77;100.00;100706.56;5010350;28;20285;-80
2024/03/30 07:15:49;;;;;;;;;;;;;;;14.88;100.00;100707.69;5010270;28;20573;-80
2024/03/30 07:18:14;;;;;;;;;;;;;;;15.14;100.00;100704.78;5010463;28;19975;-80
2024/03/30 07:20:39;;;;;;;;;;;;;;;15.50;100.00;100698.59;5022977;28;19925;-80
2024/03/30 07:23:05;;;;;;;;;;;;;;;15.72;100.00;100699.06;5011050;28;19926;-81
2024/03/30 07:25:30;;;;;;;;;;;;;;;15.82;100.00;100701.00;5010370;28;19928;-81
2024/03/30 07:27:57;;;;;;;;;;;;;;;16.10;100.00;100699.81;5010501;28;19922;-80
2024/03/30 07:30:22;;;;;;;;;;;;;;;16.28;100.00;100704.44;5010502;28;19922;-81
2024/03/30 07:32:48;;;;;;;;;;;;;;;16.43;100.00;100709.03;5010279;28;19922;-80
2024/03/30 07:35:13;;;;;;;;;;;;;;;16.46;100.00;100705.59;5010421;28;20472;-81
2024/03/30 07:37:38;;;;;;;;;;;;;;;16.57;100.00;100698.84;5010468;28;19972;-80
2024/03/30 07:40:04;;;;;;;;;;;;;;;16.69;100.00;100700.78;5009994;28;19925;-82
2024/03/30 07:42:29;;;;;;;;;;;;;;;16.77;100.00;100695.69;5010240;28;19922;-81
2024/03/30 07:44:55;;;;;;;;;;;;;;;16.82;100.00;100699.22;5009797;28;20442;-80
2024/03/30 07:47:20;;;;;;;;;;;;;;;16.88;100.00;100701.91;5010706;28;19925;-81
2024/03/30 07:49:46;;;;;;;;;;;;;;;17.03;100.00;100695.22;5010283;28;19961;-81
2024/03/30 07:52:12;;;;;;;;;;;;;;;17.18;100.00;100700.63;5010170;28;20364;-81
2024/03/30 07:54:39;;;;;;;;;;;;;;;17.16;100.00;100702.38;5006829;28;20295;-81
2024/03/30 07:57:05;;;;;;;;;;;;;;;17.32;100.00;100705.16;5011852;28;20454;-81
2024/03/30 07:59:31;;;;;;;;;;;;;;;17.48;100.00;100706.25;5010335;28;19936;-81
2024/03/30 08:01:56;;;;;;;;;;;;;;;17.66;100.00;100713.41;5010029;28;19926;-81
2024/03/30 08:04:21;;;;;;;;;;;;;;;17.81;100.00;100712.69;5009428;28;20012;-81
2024/03/30 08:06:48;;;;;;;;;;;;;;;17.81;100.00;100712.69;5010111;28;19926;-81
2024/03/30 08:09:13;;;;;;;;;;;;;;;18.01;100.00;100708.63;5011398;28;19929;-81
2024/03/30 08:11:38;;;;;;;;;;;;;;;18.18;95.10;100720.97;5009686;28;20346;-81
2024/03/30 08:14:04;;;;;;;;;;;;;;;18.25;94.58;100715.81;5008380;28;19922;-81
2024/03/30 08:16:29;;;;;;;;;;;;;;;18.31;99.55;100707.16;5008143;28;19965;-81
2024/03/30 08:18:56;;;;;;;;;;;;;;;18.37;96.95;100711.56;5008614;28;19972;-82
2024/03/30 08:21:23;;;;;;;;;;;;;;;18.46;97.95;100714.25;5006552;28;19918;-82
2024/03/30 08:23:49;;;;;;;;;;;;;;;18.57;91.39;100715.22;5008846;28;20387;-81
2024/03/30 08:26:14;;;;;;;;;;;;;;;18.73;88.52;100710.97;5011819;28;19983;-82
2024/03/30 08:28:39;;;;;;;;;;;;;;;18.88;87.82;100709.34;5012516;28;19921;-81
2024/03/30 08:31:05;;;;;;;;;;;;;;;19.11;89.86;100701.66;5008414;28;19921;-81
2024/03/30 08:33:31;;;;;;;;;;;;;;;19.18;87.58;100703.44;5011824;28;20471;-81
2024/03/30 08:35:56;;;;;;;;;;;;;;;19.22;74.86;100699.09;5011558;28;20411;-83
2024/03/30 08:38:22;;;;;;;;;;;;;;;19.33;73.25;100704.41;5011085;28;19917;-84
2024/03/30 08:40:50;;;;;;;;;;;;;;;19.45;73.36;100695.69;5010643;28;19921;-81
2024/03/30 08:43:16;;;;;;;;;;;;;;;19.60;65.87;100690.53;5012644;28;19922;-80
2024/03/30 08:45:41;;;;;;;;;;;;;;;19.76;68.28;100691.44;5014155;28;19928;-80
2024/03/30 08:48:10;;;;;;;;;;;;;;;19.90;61.98;100690.63;5013724;28;20015;-80
2024/03/30 08:50:36;;;;;;;;;;;;;;;20.04;62.13;100686.31;5028888;28;19922;-81
2024/03/30 08:53:01;;;;;;;;;;;;;;;20.20;60.73;100682.81;5013362;28;20330;-83
2024/03/30 08:55:27;;;;;;;;;;;;;;;20.14;60.32;100679.34;5013710;28;19932;-83
2024/03/30 08:57:52;;;;;;;;;;;;;;;20.29;61.95;100678.47;5013127;28;20443;-81
2024/03/30 09:00:17;;;;;;;;;;;;;;;20.41;61.67;100682.81;5010975;28;19922;-81
2024/03/30 09:02:43;;;;;;;;;;;;;;;20.58;63.38;100672.31;5011267;28;19980;-83
2024/03/30 09:05:08;;;;;;;;;;;;;;;20.65;63.97;100674.06;5011581;28;19921;-82
2024/03/30 09:07:33;;;;;;;;;;;;;;;20.80;61.11;100668.81;5011878;28;20019;-81
2024/03/30 09:09:59;;;;;;;;;;;;;;;20.93;61.22;100660.91;5011211;28;19917;-83
2024/03/30 09:12:24;;;;;;;;;;;;;;;20.94;61.40;100660.91;5010328;28;19964;-82
2024/03/30 09:14:50;;;;;;;;;;;;;;;21.04;60.47;100664.38;5009101;28;19925;-81
2024/03/30 09:17:16;;;;;;;;;;;;;;;21.10;60.68;100661.75;5010041;28;19972;-82
2024/03/30 09:19:41;;;;;;;;;;;;;;;21.26;60.40;100657.31;5000996;28;19973;-81
2024/03/30 09:22:07;;;;;;;;;;;;;;;21.34;58.44;100655.50;5007970;28;20306;-80
2024/03/30 09:24:32;;;;;;;;;;;;;;;21.42;57.33;100644.97;5013252;28;19922;-81
2024/03/30 09:26:58;;;;;;;;;;;;;;;21.50;54.42;100637.91;5012959;28;19922;-83
2024/03/30 09:29:23;;;;;;;;;;;;;;;21.65;53.28;100631.72;5015023;28;19921;-87
2024/03/30 09:31:48;;;;;;;;;;;;;;;21.82;53.78;100633.41;5016349;28;19968;-82
2024/03/30 09:34:14;;;;;;;;;;;;;;;21.89;56.82;100634.22;5012398;28;19936;-82
2024/03/30 09:36:39;;;;;;;;;;;;;;;21.95;52.98;100628.91;5013267;28;19977;-80
2024/03/30 09:39:04;;;;;;;;;;;;;;;22.07;51.65;100631.44;5013400;28;19929;-81
2024/03/30 09:41:51;;;;;;;;;;;;;;;22.27;51.78;100625.16;5012517;28;19921;-79
2024/03/30 09:44:16;;;;;;;;;;;;;;;22.38;51.16;100623.31;5013443;28;19968;-79
2024/03/30 09:46:43;;;;;;;;;;;;;;;22.53;52.35;100617.03;5013050;28;19996;-79
2024/03/30 09:49:09;;;;;;;;;;;;;;;22.65;51.15;100607.28;5015542;28;19929;-78
2024/03/30 09:51:35;;;;;;;;;;;;;;;22.71;50.14;100608.06;5016808;28;19921;-82
2024/03/30 09:54:01;;;;;;;;;;;;;;;22.67;54.70;100600.22;5012534;28;19936;-87
2024/03/30 09:56:28;;;;;;;;;;;;;;;22.90;51.89;100592.94;5012005;28;19929;-81
2024/03/30 09:58:54;;;;;;;;;;;;;;;23.10;47.95;100589.16;5000008;28;19918;-85
2024/03/30 10:01:20;;;;;;;;;;;;;;;23.06;49.94;100588.34;5012561;28;19989;-79
2024/03/30 10:03:45;;;;;;;;;;;;;;;23.26;47.86;100589.88;5012174;28;19925;-87
2024/03/30 10:06:11;;;;;;;;;;;;;;;23.38;47.41;100588.84;5008868;28;20411;-83
2024/03/30 10:08:42;;;;;;;;;;;;;;;23.35;54.52;100587.13;5009225;28;19965;-82
2024/03/30 10:11:09;;;;;;;;;;;;;;;23.37;51.21;100576.56;5009126;28;19918;-84
2024/03/30 10:13:38;;;;;;;;;;;;;;;23.43;50.40;100572.06;5008936;28;19925;-83
2024/03/30 10:16:03;;;;;;;;;;;;;;;23.46;51.68;100565.88;5009069;28;20435;-81
2024/03/30 10:18:29;;;;;;;;;;;;;;;23.66;57.66;100564.72;5008742;28;19932;-82
2024/03/30 10:20:54;;;;;;;;;;;;;;;23.86;56.55;100561.75;4984722;28;19952;-81
2024/03/30 10:23:21;;;;;;;;;;;;;;;24.00;50.81;100562.44;5008971;28;20015;-80
2024/03/30 10:25:51;;;;;;;;;;;;;;;24.02;50.82;100547.44;5009131;28;19940;-80
2024/03/30 10:28:17;;;;;;;;;;;;;;;24.12;50.29;100550.78;5009194;28;19921;-83
2024/03/30 10:30:42;;;;;;;;;;;;;;;24.22;50.94;100551.47;5009638;28;19917;-82
2024/03/30 10:33:12;;;;;;;;;;;;;;;24.38;50.11;100542.38;5008759;28;20302;-81
2024/03/30 10:35:37;;;;;;;;;;;;;;;24.62;51.78;100548.06;5007747;28;20425;-79
2024/03/30 10:38:02;;;;;;;;;;;;;;;24.81;48.03;100545.09;5005929;28;19921;-78
2024/03/30 10:40:29;;;;;;;;;;;;;;;24.88;50.82;100533.50;5008938;28;19928;-78
2024/03/30 10:42:55;;;;;;;;;;;;;;;24.99;47.21;100530.63;5008717;28;19921;-78
2024/03/30 10:45:20;;;;;;;;;;;;;;;25.14;46.30;100526.78;5010018;28;20602;-78
2024/03/30 10:47:45;;;;;;;;;;;;;;;25.17;47.22;100521.41;5011072;28;20444;-78
2024/03/30 10:50:11;;;;;;;;;;;;;;;25.20;46.19;100521.34;5011400;28;19921;-78
2024/03/30 10:52:37;;;;;;;;;;;;;;;25.22;43.90;100518.69;5011540;28;20055;-81
2024/03/30 10:55:03;;;;;;;;;;;;;;;25.39;44.11;100519.19;5010733;28;19921;-80
2024/03/30 10:57:28;;;;;;;;;;;;;;;25.60;43.97;100515.16;5007869;28;20375;-81
2024/03/30 10:59:58;;;;;;;;;;;;;;;25.65;44.03;100505.31;5003830;28;19922;-82
2024/03/30 11:02:24;;;;;;;;;;;;;;;25.76;45.40;100504.19;4998768;28;20359;-79
2024/03/30 11:04:50;;;;;;;;;;;;;;;25.86;43.64;100502.16;4989956;28;20004;-78
2024/03/30 11:07:15;;;;;;;;;;;;;;;25.90;48.16;100480.88;5007167;28;19977;-79
2024/03/30 11:09:42;;;;;;;;;;;;;;;25.90;42.59;100480.03;4981925;28;19936;-80
2024/03/30 11:12:11;;;;;;;;;;;;;;;26.02;39.70;100476.16;4990501;28;20918;-79
2024/03/30 11:14:36;;;;;;;;;;;;;;;26.20;38.11;100478.34;5003228;28;20310;-80
2024/03/30 11:17:13;;;;;;;;;;;;;;;26.40;42.93;100474.28;5001626;28;20040;-77
2024/03/30 11:19:43;;;;;;;;;;;;;;;26.46;38.52;100466.16;5003013;28;20379;-77
2024/03/30 11:22:31;;;;;;;;;;;;;;;26.60;35.81;100457.81;5000934;28;19925;-78
2024/03/30 11:25:04;;;;;;;;;;;;;;;26.66;39.44;100456.75;4926895;29;19923;-79
2024/03/30 11:27:31;;;;;;;;;;;;;;;26.68;41.49;100469.03;4927867;29;20009;-77
2024/03/30 11:30:06;;;;;;;;;;;;;;;26.79;41.78;100459.03;4891888;29;19990;-77
2024/03/30 11:32:34;;;;;;;;;;;;;;;26.75;40.14;100451.22;4920252;29;19923;-77
2024/03/30 11:35:05;;;;;;;;;;;;;;;26.34;45.05;100450.63;4918736;29;20023;-76
2024/03/30 11:37:32;;;;;;;;;;;;;;;26.41;46.18;100449.53;4919632;29;20386;-78
2024/03/30 11:40:16;;;;;;;;;;;;;;;26.39;45.43;100448.72;4918073;29;19923;-78
2024/03/30 11:42:47;;;;;;;;;;;;;;;26.47;41.94;100441.44;4913014;29;20010;-79
2024/03/30 11:45:14;;;;;;;;;;;;;;;26.58;43.42;100439.31;4922416;29;19930;-79
2024/03/30 11:47:41;;;;;;;;;;;;;;;26.58;43.84;100436.66;4907200;29;20456;-78
2024/03/30 11:50:07;;;;;;;;;;;;;;;26.52;44.48;100428.91;4908270;29;20071;-80
2024/03/30 11:52:42;;;;;;;;;;;;;;;26.36;45.34;100417.06;4908626;29;20398;-78
2024/03/30 11:55:08;;;;;;;;;;;;;;;26.37;45.87;100424.94;4902788;29;19950;-79
2024/03/30 11:57:33;;;;;;;;;;;;;;;26.44;46.15;100418.56;4907217;29;20389;-77
2024/03/30 11:59:58;;;;;;;;;;;;;;;26.63;43.35;100413.56;4919650;29;19919;-78
2024/03/30 12:02:25;;;;;;;;;;;;;;;26.28;47.10;100415.50;4984554;28;19918;-77
2024/03/30 12:04:51;;;;;;;;;;;;;;;26.28;47.53;100409.31;4933215;28;2171032;-80
2024/03/30 12:07:17;;;;;;;;;;;;;;;26.40;47.73;100403.66;5018901;28;20016;-78
2024/03/30 12:09:42;;;;;;;;;;;;;;;26.39;45.08;100399.28;5018767;28;19929;-79
2024/03/30 12:12:20;;;;;;;;;;;;;;;26.43;39.18;100397.41;5020138;28;19936;-78
2024/03/30 12:14:50;;;;;;;;;;;;;;;26.55;42.68;100390.88;5014407;28;20461;-79
2024/03/30 12:17:15;;;;;;;;;;;;;;;26.52;40.35;100394.50;5009727;28;19921;-76
2024/03/30 12:19:41;;;;;;;;;;;;;;;26.63;43.52;100400.31;5014639;28;19933;-76
2024/03/30 12:22:07;;;;;;;;;;;;;;;26.69;39.11;100390.44;5020456;28;19967;-77
2024/03/30 12:24:33;;;;;;;;;;;;;;;26.63;43.45;100396.78;5021093;28;19921;-79
2024/03/30 12:26:58;;;;;;;;;;;;;;;26.66;44.92;100380.81;5021022;28;20395;-79
2024/03/30 12:29:24;;;;;;;;;;;;;;;26.72;43.01;100385.94;5019652;28;19928;-77
2024/03/30 12:31:49;;;;;;;;;;;;;;;26.59;44.13;100376.63;5018409;28;19996;-76